KANQ

Tri-State Steuben County Airport

Angola, Indiana, USA
METAR KANQ 201115Z AUTO 34007KT 10SM CLR M18/M22 A3007 RMK AO2
Observed Flight Rules
Jan-20 @ 11:15 UTC (15 minutes ago) Visual Flight Rules
Wind Visibility Clouds
340° at 7 knots 10 miles
  • Clear skies
Temperatures Readings
Current -18°C / -0°F
Dewpoint -22°C / -8°F
Humidity 71%
Altimeter 30.07" Hg
Pressure 1018.32 hPa
Elevation 303
METAR KANQ 201115Z AUTO 34007KT 10SM CLR M18/M22 A3007 RMK AO2
Observed Flight Rules
Jan-20 @ 11:15 UTC
(15 minutes ago)
VFR
Wind Visibility
340° at 7 knots 10 miles
Clouds
  • Clear skies
Temperature Dewpoint
-18°C / -0°F -22°C / -8°F
Humidity Altimeter Pressure
71% 30.07" Hg 1018.32 hPa